Pagrindinis puslapis
METAR-TAF:

METAR-TAF

Oro uostai :

Ilam, Iranas

platuma: 33-35-09N, ilguma: 046-24-20E, Aukštis: 1334 m

Dabartinis oras

Ataskaita buvo paskelbta 1 valandą ir 38 minutes, ne 22:00 UTC
Vėjas 4 kt iš Rytų
Temperatūra 18°C
Drėgmė 32%
Slėgis 1019 hPa
Matomumas 10 km arba daugiau
nėra debesų žemiau 1500 m ir nėra kamuolinių lietaus debesų

METAR: OICI 242200Z 09004KT CAVOK 18/01 Q1018 A3008

Laikas: 03:08 (23:38 UTC)

Prognozė

Ataskaita buvo paskelbta 6 valandos ir 8 minutes, ne 17:30 UTC
Prognozė galioja nuo 24 metu 18 UTC su 25 metu 24 UTC
Vėjas 6 kt iš Rytų/Pietryčių
Matomumas 10 km arba daugiau
nėra debesų žemiau 1500 m ir nėra kamuolinių lietaus debesų
Laikinai
nuo 25 metu 08 UTC su 25 metu 14 UTC
Vėjas 14 kt iš Šiaurės/Šiaurės Vakarų su gūsio iki 24 kt
Tikimybė 40% :
Laikinai
nuo 25 metu 08 UTC su 25 metu 16 UTC
Matomumas: 5000 m

TAF: OICI 241730Z 2418/2524 12006KT CAVOK TEMPO 2508/2514 34014G24KT PROB40 TEMPO 2508/2516 5000 SA/DU

Orai ataskaitas ir orų prognozės (METAR, TAF).

turimą stotys yra geltonos ir raudonos taškus žemėlapyje.

Perkelti pele per norėdami pamatyti stoties vardą.

Tada spustelėkite, norėdami matyti oro stebėjimo ir prognozės.

Norėdami pakeisti žemėlapį: spustelėkite ant žalios mygtukų su juodo kryžiaus žemyn,; žalią mygtuką su brūkšneliu, jei norite nutolinti; arba žalių rodyklių gretimoms žemėlapius.


METAR-TAF: